Time;durP1;ratioP1;P1;durP2;ratioP2;P2;SDS_P1;SDS_P2;PMS_P1;PMS_P2;Temp;Humidity;BMP_temperature;BMP_pressure;BME280_temperature;BME280_humidity;BME280_pressure;Samples;Min_cycle;Max_cycle;Signal;HPM_P1;HPM_P2
2021/01/02 00:00:16;;;;;;;16.45;8.65;;;;;;;2.94;76.40;99388.38;3815883;23;20040;-76
2021/01/02 00:02:10;;;;;;;15.88;9.25;;;;;;;2.93;76.27;99386.69;3819845;23;20036;-77
2021/01/02 00:04:08;;;;;;;19.73;10.52;;;;;;;2.86;76.37;99384.63;3816331;23;20378;-76
2021/01/02 00:05:44;;;;;;;19.70;10.70;;;;;;;2.89;76.06;99387.91;3816246;23;20102;-79
2021/01/02 00:07:49;;;;;;;18.20;8.82;;;;;;;2.89;76.34;99390.53;3819883;23;20025;-76
2021/01/02 00:09:23;;;;;;;19.00;10.00;;;;;;;2.90;76.35;99394.00;3811948;23;20017;-77
2021/01/02 00:11:12;;;;;;;15.70;9.02;;;;;;;2.92;76.22;99392.09;3817406;23;20022;-76
2021/01/02 00:13:03;;;;;;;11.60;7.18;;;;;;;2.92;76.14;99392.97;3817308;23;20489;-76
2021/01/02 00:14:56;;;;;;;12.77;6.78;;;;;;;2.99;76.08;99387.22;3816173;23;20320;-76
2021/01/02 00:16:44;;;;;;;15.90;8.40;;;;;;;3.01;75.94;99387.97;3818229;23;20029;-76
2021/01/02 00:18:29;;;;;;;15.25;7.63;;;;;;;2.99;76.02;99395.16;3815099;23;20018;-78
2021/01/02 00:20:05;;;;;;;15.95;8.50;;;;;;;3.03;76.05;99389.53;3818533;23;20049;-78
2021/01/02 00:21:48;;;;;;;13.43;7.72;;;;;;;3.04;75.81;99395.63;3817771;23;20052;-77
2021/01/02 00:23:35;;;;;;;15.98;9.95;;;;;;;3.06;76.13;99393.72;3818302;23;20026;-77
2021/01/02 00:25:11;;;;;;;17.48;10.07;;;;;;;3.05;76.28;99394.69;3815508;23;20025;-76
2021/01/02 00:26:43;;;;;;;18.35;9.52;;;;;;;3.06;76.55;99388.44;3818005;23;20017;-77
2021/01/02 00:28:23;;;;;;;18.23;10.10;;;;;;;3.01;76.48;99390.59;3816900;23;20537;-77
2021/01/02 00:30:16;;;;;;;19.83;10.32;;;;;;;3.04;76.35;99395.63;3816479;23;20550;-76
2021/01/02 00:32:19;;;;;;;20.08;10.13;;;;;;;3.04;76.48;99391.22;3817538;23;20100;-75
2021/01/02 00:34:22;;;;;;;16.52;9.80;;;;;;;3.08;76.28;99397.13;3804119;23;20096;-76
2021/01/02 00:36:05;;;;;;;19.63;9.85;;;;;;;3.15;75.99;99393.06;3815680;23;20033;-76
2021/01/02 00:37:40;;;;;;;21.17;10.60;;;;;;;3.20;76.14;99385.66;3818147;23;20101;-77
2021/01/02 00:39:23;;;;;;;17.98;10.10;;;;;;;3.25;75.85;99391.41;3816039;23;20022;-76
2021/01/02 00:40:54;;;;;;;15.13;8.57;;;;;;;3.23;75.84;99395.13;3818250;23;20070;-75
2021/01/02 00:42:26;;;;;;;15.82;8.98;;;;;;;3.24;75.75;99392.38;3813923;23;20049;-76
2021/01/02 00:43:59;;;;;;;19.48;9.40;;;;;;;3.25;75.80;99401.16;3818269;23;20037;-78
2021/01/02 00:45:31;;;;;;;21.33;12.63;;;;;;;3.19;76.15;99399.81;3813611;23;20021;-76
2021/01/02 00:47:02;;;;;;;21.80;9.57;;;;;;;3.19;76.12;99399.81;3819362;23;20027;-75
2021/01/02 00:48:33;;;;;;;;;;;;;;;3.12;76.51;99398.56;3816191;23;20026;-75
2021/01/02 00:50:07;;;;;;;16.50;8.50;;;;;;;3.17;76.31;99400.84;3818174;23;19995;-76
2021/01/02 00:51:48;;;;;;;17.15;9.60;;;;;;;3.20;76.14;99400.66;3815752;23;20022;-76
2021/01/02 00:53:38;;;;;;;18.05;9.95;;;;;;;3.15;76.04;99400.97;3818274;23;20527;-76
2021/01/02 00:55:18;;;;;;;16.15;9.63;;;;;;;3.17;76.18;99398.22;3815593;23;20410;-76
2021/01/02 00:57:01;;;;;;;16.63;9.48;;;;;;;3.16;76.30;99397.38;3816183;23;20022;-76
2021/01/02 00:59:17;;;;;;;18.80;10.32;;;;;;;3.07;76.65;99398.91;3817818;23;20367;-79
2021/01/02 01:01:00;;;;;;;14.93;7.63;;;;;;;3.18;76.19;99395.47;3815668;23;20076;-75
2021/01/02 01:03:04;;;;;;;17.80;8.48;;;;;;;3.10;75.94;99398.69;3815239;23;20048;-77
2021/01/02 01:05:02;;;;;;;16.77;9.70;;;;;;;3.04;76.08;99398.28;3818452;23;20102;-75
2021/01/02 01:06:38;;;;;;;20.00;9.65;;;;;;;3.02;76.26;99397.56;3814314;23;20137;-75
2021/01/02 01:08:09;;;;;;;18.67;9.98;;;;;;;3.03;76.35;99396.59;3818679;23;20053;-75
2021/01/02 01:09:47;;;;;;;14.65;8.07;;;;;;;3.01;76.19;99396.72;3814950;23;20072;-76
2021/01/02 01:11:22;;;;;;;15.18;8.27;;;;;;;3.04;76.09;99398.28;3817495;23;20071;-75
2021/01/02 01:13:18;;;;;;;16.88;8.32;;;;;;;3.00;76.01;99402.13;3816108;23;20362;-76
2021/01/02 01:14:50;;;;;;;14.10;7.78;;;;;;;2.94;76.36;99406.88;3816739;23;20036;-77
2021/01/02 01:16:25;;;;;;;15.23;8.55;;;;;;;2.96;76.09;99409.44;3817781;23;20097;-76
2021/01/02 01:18:03;;;;;;;17.33;9.27;;;;;;;2.94;75.85;99411.31;3816431;23;20049;-76
2021/01/02 01:19:37;;;;;;;17.85;9.48;;;;;;;2.90;76.23;99402.78;3818167;23;20021;-76
2021/01/02 01:21:09;;;;;;;13.07;7.55;;;;;;;2.92;76.29;99408.81;3814696;23;20017;-77
2021/01/02 01:22:51;;;;;;;18.00;9.15;;;;;;;2.91;76.15;99407.13;3818969;23;20064;-76
2021/01/02 01:24:25;;;;;;;13.45;8.32;;;;;;;2.90;76.23;99405.44;3811985;23;20028;-76
2021/01/02 01:26:17;;;;;;;16.67;10.20;;;;;;;2.84;76.12;99405.84;3817913;23;20021;-78
2021/01/02 01:27:54;;;;;;;16.70;9.75;;;;;;;2.87;76.17;99405.63;3815400;23;20022;-76
2021/01/02 01:29:27;;;;;;;16.67;9.40;;;;;;;2.86;76.20;99406.59;3816564;23;20029;-77
2021/01/02 01:31:01;;;;;;;15.20;7.88;;;;;;;2.92;76.33;99408.81;3816964;23;20037;-76
2021/01/02 01:32:36;;;;;;;14.63;7.97;;;;;;;2.92;76.05;99406.16;3815918;23;20731;-76
2021/01/02 01:34:10;;;;;;;16.13;9.23;;;;;;;2.91;76.12;99407.13;3817641;23;20025;-76
2021/01/02 01:35:43;;;;;;;15.77;8.45;;;;;;;2.87;76.32;99405.63;3815274;23;20021;-76
2021/01/02 01:37:16;;;;;;;17.77;10.27;;;;;;;2.83;76.51;99409.47;3817459;23;20026;-77
2021/01/02 01:38:48;;;;;;;14.95;8.82;;;;;;;2.83;76.50;99401.56;3816232;23;20044;-77
2021/01/02 01:40:24;;;;;;;16.02;8.15;;;;;;;2.83;76.46;99406.84;3818329;23;20403;-76
2021/01/02 01:41:59;;;;;;;15.40;8.30;;;;;;;2.79;76.44;99398.25;3814382;23;20049;-76
2021/01/02 01:44:06;;;;;;;15.88;9.13;;;;;;;2.73;76.20;99406.63;3818240;23;20096;-77
2021/01/02 01:46:10;;;;;;;16.35;7.47;;;;;;;2.73;76.45;99403.16;3814663;23;20021;-76
2021/01/02 01:47:43;;;;;;;18.55;11.02;;;;;;;2.70;76.65;99413.94;3810438;23;20029;-76
2021/01/02 01:49:43;;;;;;;16.55;8.40;;;;;;;2.73;76.43;99409.28;3818155;23;20021;-76
2021/01/02 01:51:35;;;;;;;13.55;7.75;;;;;;;2.72;76.38;99409.41;3815128;23;20041;-76
2021/01/02 01:53:45;;;;;;;15.20;7.85;;;;;;;2.74;76.30;99413.59;3818164;23;20029;-76
2021/01/02 01:55:19;;;;;;;16.30;8.32;;;;;;;2.75;76.27;99415.28;3815483;23;20036;-77
2021/01/02 01:56:51;;;;;;;14.25;7.38;;;;;;;2.78;76.39;99408.94;3816001;23;20538;-76
2021/01/02 01:58:38;;;;;;;15.65;8.48;;;;;;;2.75;76.04;99414.44;3817632;23;20048;-77
2021/01/02 02:00:12;;;;;;;16.17;7.70;;;;;;;2.76;76.03;99413.47;3815388;23;20052;-77
2021/01/02 02:01:45;;;;;;;16.27;8.63;;;;;;;2.80;76.15;99409.69;3817428;23;20049;-78
2021/01/02 02:03:24;;;;;;;16.90;9.55;;;;;;;2.69;76.20;99423.66;3814439;23;20017;-76
2021/01/02 02:05:01;;;;;;;12.57;7.10;;;;;;;2.74;76.17;99420.69;3817390;23;20032;-76
2021/01/02 02:06:36;;;;;;;14.38;7.90;;;;;;;2.79;76.23;99413.28;3814895;23;20021;-77
2021/01/02 02:08:08;;;;;;;16.92;9.40;;;;;;;2.76;76.37;99413.47;3818049;23;20452;-76
2021/01/02 02:09:41;;;;;;;14.90;8.82;;;;;;;2.78;76.24;99415.09;3814978;23;20095;-76
2021/01/02 02:11:44;;;;;;;17.35;10.55;;;;;;;2.72;76.17;99412.03;3817684;23;20037;-76
2021/01/02 02:13:19;;;;;;;18.17;9.48;;;;;;;2.63;76.74;99422.31;3807451;23;20057;-78
2021/01/02 02:15:06;;;;;;;14.82;8.48;;;;;;;2.61;76.28;99418.91;3816080;23;20404;-76
2021/01/02 02:16:45;;;;;;;15.73;7.78;;;;;;;2.62;76.49;99417.97;3817333;23;20462;-76
2021/01/02 02:18:20;;;;;;;19.80;10.45;;;;;;;2.57;76.46;99425.34;3815874;23;20017;-77
2021/01/02 02:19:57;;;;;;;21.50;10.55;;;;;;;2.50;76.84;99424.94;3816933;23;20041;-78
2021/01/02 02:21:33;;;;;;;20.50;10.10;;;;;;;2.49;77.08;99425.91;3816220;23;20018;-76
2021/01/02 02:23:06;;;;;;;13.32;8.70;;;;;;;2.51;76.83;99428.44;3818332;23;20026;-76
2021/01/02 02:24:41;;;;;;;14.57;7.45;;;;;;;2.53;76.97;99429.19;3813371;23;20048;-77
2021/01/02 02:26:25;;;;;;;14.23;7.15;;;;;;;2.55;76.64;99424.63;3816283;23;20025;-79
2021/01/02 02:27:56;;;;;;;11.90;5.90;;;;;;;2.62;76.55;99431.16;3815040;23;20022;-76
2021/01/02 02:29:35;;;;;;;14.13;8.13;;;;;;;2.61;76.52;99426.84;3815803;23;20018;-77
2021/01/02 02:31:07;;;;;;;18.88;9.68;;;;;;;2.57;76.51;99428.00;3817278;23;20030;-77
2021/01/02 02:32:41;;;;;;;16.27;9.57;;;;;;;2.57;76.54;99428.00;3816245;23;20105;-76
2021/01/02 02:34:12;;;;;;;14.40;7.95;;;;;;;2.61;76.66;99432.13;3818717;23;20077;-77
2021/01/02 02:35:46;;;;;;;15.10;7.85;;;;;;;2.66;76.68;99429.16;3816433;23;20017;-77
2021/01/02 02:37:17;;;;;;;12.50;6.68;;;;;;;2.71;76.55;99432.28;3817231;23;20033;-76
2021/01/02 02:38:48;;;;;;;;;;;;;;;2.68;76.64;99426.41;3816314;23;20563;-76
2021/01/02 02:40:20;;;;;;;15.55;7.75;;;;;;;2.76;76.21;99424.91;3816757;23;19971;-77
2021/01/02 02:41:55;;;;;;;12.70;6.82;;;;;;;2.80;76.23;99426.34;3815360;23;20053;-76
2021/01/02 02:43:28;;;;;;;12.80;6.97;;;;;;;2.85;76.03;99426.03;3818237;23;20348;-77
2021/01/02 02:45:02;;;;;;;15.63;7.80;;;;;;;2.85;76.01;99419.91;3814644;23;20705;-76
2021/01/02 02:46:37;;;;;;;12.52;6.82;;;;;;;2.85;76.08;99417.28;3817898;23;20029;-76
2021/01/02 02:48:14;;;;;;;13.57;8.45;;;;;;;2.81;75.90;99420.13;3814722;23;20010;-76
2021/01/02 02:49:47;;;;;;;13.68;7.07;;;;;;;2.79;76.17;99418.56;3817857;23;20021;-76
2021/01/02 02:51:23;;;;;;;13.88;7.82;;;;;;;2.78;76.30;99417.72;3816937;23;20026;-76
2021/01/02 02:53:05;;;;;;;15.43;7.30;;;;;;;2.77;75.95;99426.59;3818595;23;20026;-77
2021/01/02 02:54:36;;;;;;;13.35;7.20;;;;;;;2.80;76.26;99420.25;3815650;23;20036;-76
2021/01/02 02:56:08;;;;;;;12.18;7.10;;;;;;;2.84;76.21;99421.69;3818647;23;20068;-76
2021/01/02 02:57:48;;;;;;;14.77;7.55;;;;;;;2.88;75.86;99423.16;3815244;23;20017;-76
2021/01/02 02:59:19;;;;;;;16.10;7.82;;;;;;;2.92;75.97;99424.66;3816463;23;20627;-76
2021/01/02 03:00:50;;;;;;;;;;;;;;;2.79;76.10;99421.19;3815661;23;20029;-77
2021/01/02 03:02:21;;;;;;;11.90;6.68;;;;;;;2.88;76.08;99417.88;3814465;23;19999;-77
2021/01/02 03:03:54;;;;;;;12.82;6.32;;;;;;;2.91;75.82;99420.31;3818019;23;20026;-77
2021/01/02 03:05:26;;;;;;;12.98;7.45;;;;;;;2.90;75.92;99421.28;3813964;23;20025;-76
2021/01/02 03:07:01;;;;;;;14.55;8.65;;;;;;;2.94;75.83;99428.00;3818175;23;20471;-78
2021/01/02 03:08:33;;;;;;;13.82;8.68;;;;;;;2.95;75.99;99427.03;3814812;23;20036;-77
2021/01/02 03:10:05;;;;;;;17.75;9.70;;;;;;;2.92;75.79;99427.28;3817887;23;20046;-76
2021/01/02 03:11:37;;;;;;;15.90;8.10;;;;;;;2.89;76.11;99422.22;3814579;23;20025;-77
2021/01/02 03:13:08;;;;;;;15.32;8.85;;;;;;;2.91;75.85;99424.75;3817867;23;20025;-76
2021/01/02 03:14:39;;;;;;;12.95;7.00;;;;;;;2.89;76.01;99426.66;3816174;23;20029;-76
2021/01/02 03:16:11;;;;;;;18.08;8.38;;;;;;;2.89;76.00;99424.00;3817055;23;20026;-77
2021/01/02 03:17:43;;;;;;;15.50;9.38;;;;;;;2.84;76.13;99426.97;3814990;23;20068;-76
2021/01/02 03:19:14;;;;;;;17.40;8.98;;;;;;;2.84;76.21;99437.53;3816963;23;20025;-79
2021/01/02 03:20:46;;;;;;;;;;;;;;;2.70;76.36;99430.59;3815097;23;20021;-76
2021/01/02 03:22:17;;;;;;;11.80;7.18;;;;;;;2.79;76.19;99432.59;3816054;23;19920;-77
2021/01/02 03:23:50;;;;;;;16.15;8.52;;;;;;;2.80;76.29;99431.63;3813258;23;20014;-77
2021/01/02 03:25:21;;;;;;;15.40;7.85;;;;;;;2.80;76.17;99426.34;3817390;23;20029;-76
2021/01/02 03:26:53;;;;;;;15.30;9.52;;;;;;;2.75;76.27;99435.56;3814225;23;20025;-76
2021/01/02 03:28:24;;;;;;;16.42;8.90;;;;;;;2.71;76.51;99439.38;3818619;23;20029;-76
2021/01/02 03:29:55;;;;;;;;;;;;;;;2.62;76.95;99432.94;3815104;23;20072;-76
2021/01/02 03:31:27;;;;;;;11.15;6.10;;;;;;;2.75;76.71;99435.56;3818453;23;19917;-76
2021/01/02 03:32:58;;;;;;;14.80;7.45;;;;;;;2.81;76.42;99428.03;3815424;23;20048;-76
2021/01/02 03:34:29;;;;;;;14.75;7.32;;;;;;;2.80;76.12;99436.91;3818728;23;20021;-78
2021/01/02 03:36:01;;;;;;;13.27;7.35;;;;;;;2.77;76.22;99441.56;3815979;23;20065;-76
2021/01/02 03:37:35;;;;;;;13.52;7.75;;;;;;;2.77;76.27;99441.56;3818599;23;20057;-76
2021/01/02 03:39:07;;;;;;;13.02;7.15;;;;;;;2.77;76.27;99444.22;3816841;23;20049;-76
2021/01/02 03:40:38;;;;;;;13.77;8.35;;;;;;;2.75;76.39;99446.09;3818149;23;20029;-76
2021/01/02 03:42:10;;;;;;;14.85;8.40;;;;;;;2.77;76.36;99452.13;3815134;23;20021;-77
2021/01/02 03:43:41;;;;;;;18.17;8.43;;;;;;;2.78;76.47;99443.25;3818507;23;20092;-78
2021/01/02 03:45:15;;;;;;;17.75;7.80;;;;;;;2.78;76.39;99438.84;3822279;23;20080;-78
2021/01/02 03:46:46;;;;;;;12.48;6.97;;;;;;;2.81;76.30;99437.78;3828686;23;20032;-77
2021/01/02 03:48:18;;;;;;;15.65;8.23;;;;;;;2.87;76.33;99437.31;3827256;23;20029;-76
2021/01/02 03:49:49;;;;;;;13.80;8.27;;;;;;;2.90;76.48;99449.44;3833664;23;20417;-79
2021/01/02 03:51:24;;;;;;;18.17;9.73;;;;;;;2.91;76.32;99437.94;3828144;23;20013;-77
2021/01/02 03:52:57;;;;;;;15.20;8.68;;;;;;;2.95;76.33;99449.97;3831016;23;20025;-78
2021/01/02 03:54:29;;;;;;;17.20;9.00;;;;;;;2.95;76.20;99442.06;3828748;23;20022;-79
2021/01/02 03:56:00;;;;;;;17.17;9.65;;;;;;;2.95;76.34;99440.25;3831251;23;20025;-77
2021/01/02 03:57:34;;;;;;;18.17;8.57;;;;;;;2.97;76.11;99434.88;3827787;23;20021;-79
2021/01/02 03:59:05;;;;;;;15.35;8.23;;;;;;;2.89;76.23;99435.41;3832598;23;20045;-77
2021/01/02 04:00:39;;;;;;;18.67;9.48;;;;;;;2.95;76.19;99440.25;3829406;23;20032;-78
2021/01/02 04:02:16;;;;;;;17.90;8.30;;;;;;;2.97;76.00;99433.06;3831341;23;20021;-77
2021/01/02 04:03:47;;;;;;;13.95;7.47;;;;;;;2.99;76.12;99434.75;3825079;23;20025;-76
2021/01/02 04:05:19;;;;;;;17.85;8.77;;;;;;;2.99;76.13;99434.75;3825309;23;20025;-77
2021/01/02 04:07:01;;;;;;;14.05;7.85;;;;;;;2.96;75.82;99434.03;3821027;23;20052;-76
2021/01/02 04:08:34;;;;;;;13.77;7.22;;;;;;;3.00;76.05;99428.53;3823059;23;20447;-78
2021/01/02 04:10:16;;;;;;;16.38;8.23;;;;;;;2.94;75.64;99428.00;3832759;23;20025;-78
2021/01/02 04:11:49;;;;;;;12.57;6.75;;;;;;;2.96;76.24;99425.28;3828976;23;20041;-77
2021/01/02 04:13:20;;;;;;;15.65;7.95;;;;;;;2.92;76.16;99432.56;3834110;23;20018;-79
2021/01/02 04:14:51;;;;;;;;;;;;;;;2.84;76.35;99432.25;3830895;23;20048;-78
2021/01/02 04:16:22;;;;;;;10.88;6.60;;;;;;;2.90;76.27;99425.69;3833584;23;19932;-80
2021/01/02 04:17:53;;;;;;;;;;;;;;;2.80;76.31;99436.91;3832896;23;20021;-79
2021/01/02 04:19:26;;;;;;;12.02;6.90;;;;;;;2.89;76.20;99432.78;3831536;23;20297;-77
2021/01/02 04:20:58;;;;;;;12.00;5.50;;;;;;;2.91;76.04;99424.75;3831880;23;20029;-77
2021/01/02 04:22:30;;;;;;;14.23;6.97;;;;;;;2.93;76.06;99433.41;3832976;23;20025;-77
2021/01/02 04:24:03;;;;;;;13.32;7.07;;;;;;;2.90;76.05;99431.84;3826414;23;20025;-78
2021/01/02 04:25:41;;;;;;;12.57;6.53;;;;;;;2.90;76.04;99420.41;3832809;23;20024;-78
2021/01/02 04:27:12;;;;;;;14.60;6.40;;;;;;;2.90;76.17;99420.41;3830682;23;20166;-77
2021/01/02 04:28:43;;;;;;;14.38;7.63;;;;;;;2.91;76.29;99414.19;3830711;23;20042;-80
2021/01/02 04:30:16;;;;;;;16.30;7.93;;;;;;;2.93;76.15;99410.47;3830933;23;20028;-77
2021/01/02 04:31:49;;;;;;;13.90;7.85;;;;;;;2.90;76.24;99421.28;3833887;23;20482;-79
2021/01/02 04:33:21;;;;;;;12.10;6.88;;;;;;;2.91;76.35;99416.81;3828020;23;20068;-78
2021/01/02 04:34:55;;;;;;;13.75;7.30;;;;;;;2.87;76.05;99418.84;3834869;23;20025;-79
2021/01/02 04:36:27;;;;;;;15.77;9.35;;;;;;;2.89;76.31;99416.09;3831129;23;20084;-76
2021/01/02 04:38:00;;;;;;;16.50;8.18;;;;;;;2.87;76.24;99416.19;3822530;23;20024;-76
2021/01/02 04:39:34;;;;;;;14.63;7.05;;;;;;;2.89;76.29;99416.94;3817709;23;20025;-76
2021/01/02 04:41:13;;;;;;;17.70;8.45;;;;;;;2.88;76.02;99419.69;3819929;23;20068;-76
2021/01/02 04:42:48;;;;;;;14.43;7.85;;;;;;;2.89;76.15;99416.94;3817757;23;20521;-76
2021/01/02 04:44:22;;;;;;;14.23;7.65;;;;;;;2.88;76.27;99412.59;3820325;23;20017;-76
2021/01/02 04:45:53;;;;;;;17.20;7.47;;;;;;;2.89;76.33;99419.56;3819046;23;20021;-76
2021/01/02 04:47:29;;;;;;;13.45;7.65;;;;;;;2.90;76.11;99410.72;3817149;23;20025;-76
2021/01/02 04:49:00;;;;;;;16.15;8.25;;;;;;;2.91;76.34;99414.19;3820777;23;20029;-76
2021/01/02 04:50:33;;;;;;;15.02;7.88;;;;;;;2.89;76.18;99411.66;3815404;23;20025;-76
2021/01/02 04:52:04;;;;;;;14.38;7.32;;;;;;;2.88;76.28;99417.88;3818588;23;20025;-76
2021/01/02 04:53:36;;;;;;;14.10;7.22;;;;;;;2.89;76.27;99411.66;3816101;23;20415;-76
2021/01/02 04:55:09;;;;;;;12.18;7.30;;;;;;;2.89;76.11;99409.03;3818651;23;20026;-78
2021/01/02 04:56:40;;;;;;;10.95;6.30;;;;;;;2.83;76.39;99414.75;3813965;23;20044;-76
2021/01/02 04:58:18;;;;;;;13.48;7.10;;;;;;;2.85;76.40;99415.47;3819640;23;20025;-76
2021/01/02 04:59:50;;;;;;;13.65;7.13;;;;;;;2.87;76.40;99410.91;3816004;23;20022;-76
2021/01/02 05:01:23;;;;;;;14.02;7.15;;;;;;;2.87;76.23;99418.00;3816949;23;20482;-76
2021/01/02 05:02:54;;;;;;;14.95;7.13;;;;;;;2.88;76.16;99417.88;3815615;23;20048;-76
2021/01/02 05:04:26;;;;;;;11.68;6.80;;;;;;;2.86;76.42;99417.16;3817366;23;20477;-76
2021/01/02 05:05:59;;;;;;;13.80;7.78;;;;;;;2.88;76.35;99422.34;3816336;23;20474;-78
2021/01/02 05:07:34;;;;;;;14.95;6.88;;;;;;;2.89;76.23;99422.22;3817791;23;20103;-76
2021/01/02 05:09:07;;;;;;;10.88;6.38;;;;;;;2.89;76.27;99416.94;3816159;23;20027;-75
2021/01/02 05:10:39;;;;;;;11.68;5.88;;;;;;;2.91;76.28;99415.03;3818212;23;20080;-78
2021/01/02 05:12:23;;;;;;;8.95;4.97;;;;;;;2.90;76.16;99423.91;3815522;23;20403;-76
2021/01/02 05:14:00;;;;;;;12.65;6.60;;;;;;;2.89;75.99;99424.84;3818434;23;20029;-75
2021/01/02 05:15:32;;;;;;;13.05;7.30;;;;;;;2.86;76.34;99421.59;3813940;23;20045;-76
2021/01/02 05:17:24;;;;;;;10.20;4.95;;;;;;;2.88;76.29;99425.81;3818286;23;20026;-76
2021/01/02 05:18:58;;;;;;;10.63;5.43;;;;;;;2.88;76.26;99423.16;3815301;23;20068;-77
2021/01/02 05:20:29;;;;;;;16.67;6.75;;;;;;;2.87;76.39;99428.56;3816590;23;20085;-76
2021/01/02 05:22:00;;;;;;;13.50;6.88;;;;;;;2.88;76.18;99432.91;3818623;23;20076;-76
2021/01/02 05:23:32;;;;;;;11.63;6.55;;;;;;;2.90;76.27;99436.25;3815263;23;20026;-76
2021/01/02 05:25:08;;;;;;;12.55;6.60;;;;;;;2.88;76.23;99444.28;3815295;23;20025;-76
2021/01/02 05:26:42;;;;;;;11.98;6.35;;;;;;;2.90;76.25;99441.53;3815756;23;20022;-75
2021/01/02 05:28:18;;;;;;;12.40;6.63;;;;;;;2.90;76.13;99437.13;3817721;23;20511;-75
2021/01/02 05:29:49;;;;;;;15.55;7.38;;;;;;;2.92;76.32;99450.19;3815639;23;20044;-76
2021/01/02 05:31:27;;;;;;;11.65;6.32;;;;;;;2.89;76.12;99453.91;3818520;23;20129;-78
2021/01/02 05:33:00;;;;;;;18.67;9.23;;;;;;;2.88;76.29;99452.22;3815497;23;20021;-78
2021/01/02 05:34:33;;;;;;;16.80;8.65;;;;;;;2.86;76.38;99454.13;3829230;23;20021;-78
2021/01/02 05:36:05;;;;;;;13.18;6.60;;;;;;;2.87;76.31;99453.16;3826053;23;20018;-76
2021/01/02 05:37:36;;;;;;;14.68;7.70;;;;;;;2.88;76.46;99454.03;3827729;23;20031;-79
2021/01/02 05:39:09;;;;;;;14.82;7.80;;;;;;;2.89;76.29;99453.03;3822271;23;20471;-78
2021/01/02 05:40:41;;;;;;;16.35;9.75;;;;;;;2.87;76.28;99447.06;3827170;23;20074;-78
2021/01/02 05:42:14;;;;;;;15.02;7.65;;;;;;;2.85;76.22;99444.50;3824419;23;20502;-78
2021/01/02 05:43:45;;;;;;;14.80;8.65;;;;;;;2.84;76.27;99448.09;3825937;23;20495;-76
2021/01/02 05:45:23;;;;;;;14.98;8.73;;;;;;;2.79;76.31;99450.22;3816553;23;20025;-76
2021/01/02 05:46:55;;;;;;;14.48;8.07;;;;;;;2.84;76.50;99442.81;3815877;23;20044;-76
2021/01/02 05:48:28;;;;;;;14.80;7.10;;;;;;;2.87;76.33;99453.16;3815271;23;20068;-77
2021/01/02 05:50:02;;;;;;;13.55;8.15;;;;;;;2.85;76.23;99448.97;3816474;23;20025;-76
2021/01/02 05:51:42;;;;;;;14.98;7.68;;;;;;;2.86;76.28;99455.94;3816316;23;20359;-77
2021/01/02 05:53:27;;;;;;;16.75;7.85;;;;;;;2.81;76.25;99458.91;3817629;23;20026;-77
2021/01/02 05:54:59;;;;;;;16.27;6.82;;;;;;;2.85;76.36;99459.50;3815604;23;20017;-76
2021/01/02 05:56:46;;;;;;;14.75;8.18;;;;;;;2.84;76.21;99463.94;3814560;23;20048;-76
2021/01/02 05:58:18;;;;;;;17.83;9.48;;;;;;;2.82;76.51;99460.59;3818021;23;20029;-77
2021/01/02 05:59:53;;;;;;;13.95;7.30;;;;;;;2.83;76.49;99458.78;3814728;23;20052;-77
2021/01/02 06:01:28;;;;;;;15.20;8.38;;;;;;;2.84;76.32;99453.38;3816306;23;20021;-76
2021/01/02 06:03:00;;;;;;;17.88;9.75;;;;;;;2.89;76.17;99456.53;3814555;23;20017;-76
2021/01/02 06:04:31;;;;;;;14.60;7.97;;;;;;;2.85;76.36;99455.06;3817027;23;20026;-76
2021/01/02 06:06:04;;;;;;;14.63;7.07;;;;;;;2.85;76.44;99460.34;3814675;23;20045;-76
2021/01/02 06:07:36;;;;;;;15.43;8.30;;;;;;;2.90;76.20;99462.66;3816845;23;20139;-76
2021/01/02 06:09:07;;;;;;;14.45;7.93;;;;;;;2.94;76.15;99466.78;3814297;23;20449;-76
2021/01/02 06:10:38;;;;;;;14.68;7.90;;;;;;;2.96;76.06;99468.34;3816625;23;20017;-76
2021/01/02 06:12:09;;;;;;;;;;;;;;;2.87;76.11;99463.72;3815877;23;20466;-75
2021/01/02 06:13:44;;;;;;;12.05;6.80;;;;;;;2.94;76.28;99462.31;3818261;23;19920;-76
2021/01/02 06:15:16;;;;;;;15.88;7.80;;;;;;;2.94;75.99;99464.97;3814598;23;20636;-76
2021/01/02 06:16:52;;;;;;;18.83;9.27;;;;;;;2.97;75.90;99462.13;3817438;23;20036;-76
2021/01/02 06:18:23;;;;;;;12.88;7.30;;;;;;;2.96;76.08;99467.53;3814442;23;20021;-76
2021/01/02 06:19:54;;;;;;;;;;;;;;;2.81;76.01;99465.00;3818577;23;20036;-76
2021/01/02 06:21:26;;;;;;;13.27;7.55;;;;;;;2.91;76.18;99469.63;3815160;23;19916;-76
2021/01/02 06:22:57;;;;;;;14.88;8.52;;;;;;;2.87;76.06;99469.00;3816828;23;20049;-76
2021/01/02 06:24:28;;;;;;;16.92;9.15;;;;;;;2.81;76.33;99469.44;3813054;23;20027;-76
2021/01/02 06:26:00;;;;;;;14.02;7.45;;;;;;;2.84;75.96;99469.22;3817407;23;20025;-77
2021/01/02 06:27:33;;;;;;;15.30;6.93;;;;;;;2.89;76.09;99476.81;3815050;23;20072;-76
2021/01/02 06:29:05;;;;;;;12.07;7.25;;;;;;;2.92;76.10;99472.19;3817665;23;20635;-76
2021/01/02 06:30:36;;;;;;;16.15;8.13;;;;;;;2.90;76.02;99471.44;3814093;23;20049;-75
2021/01/02 06:32:08;;;;;;;16.70;9.43;;;;;;;2.86;75.94;99472.59;3818019;23;20036;-75
2021/01/02 06:33:45;;;;;;;13.25;8.20;;;;;;;2.83;75.83;99470.19;3815509;23;20112;-75
2021/01/02 06:35:19;;;;;;;14.27;8.95;;;;;;;2.83;76.20;99477.25;3817336;23;20032;-76
2021/01/02 06:36:56;;;;;;;16.55;10.45;;;;;;;2.76;76.21;99471.56;3818925;23;20022;-76
2021/01/02 06:38:28;;;;;;;17.05;9.88;;;;;;;2.70;76.33;99470.19;3817638;23;20080;-77
2021/01/02 06:40:20;;;;;;;18.95;10.43;;;;;;;2.65;76.08;99474.97;3820593;23;20083;-76
2021/01/02 06:41:53;;;;;;;17.23;10.18;;;;;;;2.62;76.47;99476.03;3815959;23;20044;-76
2021/01/02 06:43:25;;;;;;;15.10;8.88;;;;;;;2.67;76.13;99472.22;3817936;23;20359;-76
2021/01/02 06:44:57;;;;;;;11.95;6.65;;;;;;;2.76;75.96;99477.69;3816266;23;20068;-76
2021/01/02 06:46:34;;;;;;;15.57;9.65;;;;;;;2.71;75.84;99473.69;3817672;23;20026;-75
2021/01/02 06:48:33;;;;;;;15.73;9.80;;;;;;;2.70;75.73;99461.44;3815637;23;20028;-76
2021/01/02 06:50:17;;;;;;;14.93;8.73;;;;;;;2.63;75.90;99459.25;3817985;23;20025;-77
2021/01/02 06:51:50;;;;;;;16.08;8.68;;;;;;;2.60;76.17;99464.75;3821616;23;20036;-79
2021/01/02 06:53:23;;;;;;;17.25;9.68;;;;;;;2.61;76.09;99466.44;3829263;23;20032;-76
2021/01/02 06:55:15;;;;;;;17.25;10.32;;;;;;;2.58;76.21;99465.81;3830637;23;20026;-78
2021/01/02 06:57:08;;;;;;;16.95;9.02;;;;;;;2.60;76.08;99474.44;3829821;23;20026;-78
2021/01/02 06:58:42;;;;;;;15.98;9.60;;;;;;;2.59;76.06;99470.97;3830607;23;20025;-78
2021/01/02 07:00:25;;;;;;;17.23;9.48;;;;;;;2.58;76.20;99463.16;3829144;23;20041;-78
2021/01/02 07:01:58;;;;;;;16.10;9.32;;;;;;;2.54;76.49;99462.53;3830298;23;20026;-79
2021/01/02 07:03:51;;;;;;;15.75;9.38;;;;;;;2.48;76.23;99460.31;3828594;23;20022;-78
2021/01/02 07:05:42;;;;;;;15.93;9.05;;;;;;;2.52;76.09;99467.06;3823795;23;20037;-77
2021/01/02 07:07:40;;;;;;;17.25;9.95;;;;;;;2.44;76.47;99466.78;3830543;23;20026;-79
2021/01/02 07:09:23;;;;;;;16.25;9.90;;;;;;;2.48;76.37;99463.81;3830598;23;20017;-76
2021/01/02 07:11:12;;;;;;;15.15;7.68;;;;;;;2.58;76.38;99457.88;3830544;23;20018;-76
2021/01/02 07:12:44;;;;;;;18.10;8.98;;;;;;;2.57;76.10;99459.66;3827986;23;20022;-76
2021/01/02 07:14:24;;;;;;;16.48;10.20;;;;;;;2.49;76.34;99462.00;3820554;23;20022;-76
2021/01/02 07:16:23;;;;;;;17.15;9.95;;;;;;;2.44;76.42;99466.78;3818538;23;20020;-75
2021/01/02 07:17:55;;;;;;;15.68;9.18;;;;;;;2.46;76.51;99462.22;3817747;23;20037;-75
2021/01/02 07:19:33;;;;;;;15.55;9.32;;;;;;;2.51;76.20;99460.09;3819924;23;20045;-75
2021/01/02 07:21:34;;;;;;;16.25;10.23;;;;;;;2.30;76.39;99465.91;3817349;23;20092;-76
2021/01/02 07:23:05;;;;;;;17.45;9.85;;;;;;;2.32;76.70;99461.38;3819429;23;20025;-75
2021/01/02 07:24:42;;;;;;;16.02;9.07;;;;;;;2.37;76.40;99455.78;3814659;23;20021;-76
2021/01/02 07:26:23;;;;;;;15.55;9.68;;;;;;;2.32;76.25;99464.03;3817658;23;20049;-76
2021/01/02 07:28:02;;;;;;;15.63;9.93;;;;;;;2.34;76.56;99450.72;3816871;23;20024;-76
2021/01/02 07:29:34;;;;;;;16.67;9.85;;;;;;;2.39;76.36;99467.09;3816901;23;20045;-78
2021/01/02 07:31:07;;;;;;;19.75;10.45;;;;;;;2.40;76.44;99463.50;3818172;23;20080;-76
2021/01/02 07:32:40;;;;;;;16.77;9.80;;;;;;;2.33;76.55;99468.34;3816343;23;20077;-75
2021/01/02 07:34:20;;;;;;;17.25;10.77;;;;;;;2.30;76.64;99459.81;3818802;23;20025;-76
2021/01/02 07:35:52;;;;;;;15.98;9.23;;;;;;;2.37;76.58;99466.34;3817075;23;20022;-76